sensor_id;sensor_type;location;lat;lon;timestamp;P1;durP1;ratioP1;P2;durP2;ratioP2
20000;SDS011;10161;41.188;-8.642;2023-04-03T00:01:40;7.70;;;4.17;;
20000;SDS011;10161;41.188;-8.642;2023-04-03T00:04:07;6.27;;;3.63;;
20000;SDS011;10161;41.188;-8.642;2023-04-03T00:06:34;6.67;;;3.93;;
20000;SDS011;10161;41.188;-8.642;2023-04-03T00:09:02;5.90;;;3.97;;
20000;SDS011;10161;41.188;-8.642;2023-04-03T00:11:29;6.30;;;4.03;;
20000;SDS011;10161;41.188;-8.642;2023-04-03T00:13:56;8.00;;;4.10;;
20000;SDS011;10161;41.188;-8.642;2023-04-03T00:16:23;5.37;;;3.40;;
20000;SDS011;10161;41.188;-8.642;2023-04-03T00:18:50;6.47;;;3.40;;
20000;SDS011;10161;41.188;-8.642;2023-04-03T00:21:17;4.20;;;3.10;;
20000;SDS011;10161;41.188;-8.642;2023-04-03T00:23:44;5.07;;;3.20;;
20000;SDS011;10161;41.188;-8.642;2023-04-03T00:26:12;6.30;;;3.60;;
20000;SDS011;10161;41.188;-8.642;2023-04-03T00:28:39;4.47;;;3.07;;
20000;SDS011;10161;41.188;-8.642;2023-04-03T00:31:06;3.33;;;2.60;;
20000;SDS011;10161;41.188;-8.642;2023-04-03T00:33:33;4.50;;;2.80;;
20000;SDS011;10161;41.188;-8.642;2023-04-03T00:36:04;4.17;;;2.67;;
20000;SDS011;10161;41.188;-8.642;2023-04-03T00:38:32;3.40;;;2.60;;
20000;SDS011;10161;41.188;-8.642;2023-04-03T00:40:59;4.50;;;3.30;;
20000;SDS011;10161;41.188;-8.642;2023-04-03T00:43:27;4.43;;;3.23;;
20000;SDS011;10161;41.188;-8.642;2023-04-03T00:45:55;5.27;;;3.57;;
20000;SDS011;10161;41.188;-8.642;2023-04-03T00:48:25;5.97;;;3.70;;
20000;SDS011;10161;41.188;-8.642;2023-04-03T00:50:53;4.77;;;3.57;;
20000;SDS011;10161;41.188;-8.642;2023-04-03T00:53:21;5.67;;;4.27;;
20000;SDS011;10161;41.188;-8.642;2023-04-03T00:55:50;5.10;;;4.57;;
20000;SDS011;10161;41.188;-8.642;2023-04-03T00:58:18;9.63;;;4.47;;
20000;SDS011;10161;41.188;-8.642;2023-04-03T01:00:50;7.00;;;4.57;;
20000;SDS011;10161;41.188;-8.642;2023-04-03T01:03:22;6.80;;;4.73;;
20000;SDS011;10161;41.188;-8.642;2023-04-03T01:05:49;7.43;;;5.97;;
20000;SDS011;10161;41.188;-8.642;2023-04-03T01:08:16;7.67;;;5.60;;
20000;SDS011;10161;41.188;-8.642;2023-04-03T01:10:43;6.60;;;5.50;;
20000;SDS011;10161;41.188;-8.642;2023-04-03T01:13:18;7.20;;;5.77;;
20000;SDS011;10161;41.188;-8.642;2023-04-03T01:15:51;6.13;;;5.13;;
20000;SDS011;10161;41.188;-8.642;2023-04-03T01:18:18;7.03;;;5.83;;
20000;SDS011;10161;41.188;-8.642;2023-04-03T01:20:50;6.13;;;4.73;;
20000;SDS011;10161;41.188;-8.642;2023-04-03T01:23:42;6.00;;;4.70;;
20000;SDS011;10161;41.188;-8.642;2023-04-03T01:26:13;5.97;;;4.50;;
20000;SDS011;10161;41.188;-8.642;2023-04-03T01:28:40;5.67;;;4.67;;
20000;SDS011;10161;41.188;-8.642;2023-04-03T01:31:12;7.67;;;4.90;;
20000;SDS011;10161;41.188;-8.642;2023-04-03T01:33:43;5.73;;;4.00;;
20000;SDS011;10161;41.188;-8.642;2023-04-03T01:36:13;6.07;;;4.47;;
20000;SDS011;10161;41.188;-8.642;2023-04-03T01:38:41;6.87;;;4.63;;
20000;SDS011;10161;41.188;-8.642;2023-04-03T01:41:08;6.73;;;4.27;;
20000;SDS011;10161;41.188;-8.642;2023-04-03T01:43:35;6.10;;;3.93;;
20000;SDS011;10161;41.188;-8.642;2023-04-03T01:46:02;5.10;;;3.87;;
20000;SDS011;10161;41.188;-8.642;2023-04-03T01:48:29;6.43;;;4.23;;
20000;SDS011;10161;41.188;-8.642;2023-04-03T01:50:57;6.50;;;4.00;;
20000;SDS011;10161;41.188;-8.642;2023-04-03T01:53:24;4.50;;;3.47;;
20000;SDS011;10161;41.188;-8.642;2023-04-03T01:55:51;6.70;;;3.83;;
20000;SDS011;10161;41.188;-8.642;2023-04-03T01:58:18;4.33;;;3.40;;
20000;SDS011;10161;41.188;-8.642;2023-04-03T02:00:45;6.60;;;3.80;;
20000;SDS011;10161;41.188;-8.642;2023-04-03T02:03:12;5.60;;;3.57;;
20000;SDS011;10161;41.188;-8.642;2023-04-03T02:05:39;7.13;;;3.87;;
20000;SDS011;10161;41.188;-8.642;2023-04-03T02:08:07;5.37;;;3.50;;
20000;SDS011;10161;41.188;-8.642;2023-04-03T02:10:34;6.13;;;3.73;;
20000;SDS011;10161;41.188;-8.642;2023-04-03T02:13:01;6.17;;;4.37;;
20000;SDS011;10161;41.188;-8.642;2023-04-03T02:15:28;7.57;;;3.70;;
20000;SDS011;10161;41.188;-8.642;2023-04-03T02:17:54;5.10;;;3.93;;
20000;SDS011;10161;41.188;-8.642;2023-04-03T02:20:21;6.57;;;4.53;;
20000;SDS011;10161;41.188;-8.642;2023-04-03T02:22:49;9.50;;;5.10;;
20000;SDS011;10161;41.188;-8.642;2023-04-03T02:25:18;5.10;;;4.10;;
20000;SDS011;10161;41.188;-8.642;2023-04-03T02:27:45;6.20;;;4.67;;
20000;SDS011;10161;41.188;-8.642;2023-04-03T02:30:12;4.50;;;3.83;;
20000;SDS011;10161;41.188;-8.642;2023-04-03T02:32:39;5.67;;;4.50;;
20000;SDS011;10161;41.188;-8.642;2023-04-03T02:35:07;6.93;;;4.50;;
20000;SDS011;10161;41.188;-8.642;2023-04-03T02:37:35;5.83;;;3.60;;
20000;SDS011;10161;41.188;-8.642;2023-04-03T02:40:02;5.80;;;3.77;;
20000;SDS011;10161;41.188;-8.642;2023-04-03T02:42:31;5.13;;;3.50;;
20000;SDS011;10161;41.188;-8.642;2023-04-03T02:44:58;6.70;;;3.77;;
20000;SDS011;10161;41.188;-8.642;2023-04-03T02:47:25;5.97;;;3.90;;
20000;SDS011;10161;41.188;-8.642;2023-04-03T02:49:52;7.37;;;3.63;;
20000;SDS011;10161;41.188;-8.642;2023-04-03T02:52:19;4.90;;;3.73;;
20000;SDS011;10161;41.188;-8.642;2023-04-03T02:54:46;6.43;;;3.67;;
20000;SDS011;10161;41.188;-8.642;2023-04-03T02:57:13;5.30;;;2.73;;
20000;SDS011;10161;41.188;-8.642;2023-04-03T02:59:41;4.67;;;3.40;;
20000;SDS011;10161;41.188;-8.642;2023-04-03T03:02:09;5.30;;;3.60;;
20000;SDS011;10161;41.188;-8.642;2023-04-03T03:04:36;5.00;;;4.20;;
20000;SDS011;10161;41.188;-8.642;2023-04-03T03:07:03;8.00;;;4.77;;
20000;SDS011;10161;41.188;-8.642;2023-04-03T03:09:30;6.20;;;4.03;;
20000;SDS011;10161;41.188;-8.642;2023-04-03T03:11:57;6.20;;;3.47;;
20000;SDS011;10161;41.188;-8.642;2023-04-03T03:14:24;6.10;;;3.90;;
20000;SDS011;10161;41.188;-8.642;2023-04-03T03:16:52;11.00;;;3.60;;
20000;SDS011;10161;41.188;-8.642;2023-04-03T03:19:19;5.77;;;3.40;;
20000;SDS011;10161;41.188;-8.642;2023-04-03T03:21:46;3.70;;;3.20;;
20000;SDS011;10161;41.188;-8.642;2023-04-03T03:24:13;5.63;;;3.10;;
20000;SDS011;10161;41.188;-8.642;2023-04-03T03:26:41;5.37;;;3.80;;
20000;SDS011;10161;41.188;-8.642;2023-04-03T03:29:08;6.20;;;4.90;;
20000;SDS011;10161;41.188;-8.642;2023-04-03T03:31:35;7.40;;;5.03;;
20000;SDS011;10161;41.188;-8.642;2023-04-03T03:34:03;4.03;;;3.50;;
20000;SDS011;10161;41.188;-8.642;2023-04-03T03:36:30;5.17;;;4.10;;
20000;SDS011;10161;41.188;-8.642;2023-04-03T03:38:57;6.90;;;3.90;;
20000;SDS011;10161;41.188;-8.642;2023-04-03T03:41:24;5.70;;;3.67;;
20000;SDS011;10161;41.188;-8.642;2023-04-03T03:43:51;5.40;;;3.53;;
20000;SDS011;10161;41.188;-8.642;2023-04-03T03:46:18;6.23;;;3.60;;
20000;SDS011;10161;41.188;-8.642;2023-04-03T03:48:45;6.43;;;4.10;;
20000;SDS011;10161;41.188;-8.642;2023-04-03T03:51:13;4.40;;;3.57;;
20000;SDS011;10161;41.188;-8.642;2023-04-03T03:53:40;4.50;;;3.80;;
20000;SDS011;10161;41.188;-8.642;2023-04-03T03:56:07;4.37;;;3.27;;
20000;SDS011;10161;41.188;-8.642;2023-04-03T03:58:34;3.77;;;3.10;;
20000;SDS011;10161;41.188;-8.642;2023-04-03T04:01:01;4.63;;;3.13;;
20000;SDS011;10161;41.188;-8.642;2023-04-03T04:03:28;4.23;;;3.50;;
20000;SDS011;10161;41.188;-8.642;2023-04-03T04:05:55;4.40;;;3.20;;
20000;SDS011;10161;41.188;-8.642;2023-04-03T04:08:23;4.70;;;3.37;;
20000;SDS011;10161;41.188;-8.642;2023-04-03T04:10:51;4.63;;;3.20;;
20000;SDS011;10161;41.188;-8.642;2023-04-03T04:13:18;3.87;;;2.93;;
20000;SDS011;10161;41.188;-8.642;2023-04-03T04:15:45;8.90;;;3.30;;
20000;SDS011;10161;41.188;-8.642;2023-04-03T04:18:12;5.07;;;3.03;;
20000;SDS011;10161;41.188;-8.642;2023-04-03T04:20:38;3.10;;;2.50;;
20000;SDS011;10161;41.188;-8.642;2023-04-03T04:23:05;3.33;;;3.03;;
20000;SDS011;10161;41.188;-8.642;2023-04-03T04:25:35;4.23;;;3.60;;
20000;SDS011;10161;41.188;-8.642;2023-04-03T04:28:02;6.20;;;3.20;;
20000;SDS011;10161;41.188;-8.642;2023-04-03T04:30:28;5.20;;;2.90;;
20000;SDS011;10161;41.188;-8.642;2023-04-03T04:32:55;4.37;;;2.93;;
20000;SDS011;10161;41.188;-8.642;2023-04-03T04:35:22;2.77;;;2.43;;
20000;SDS011;10161;41.188;-8.642;2023-04-03T04:37:50;3.57;;;2.83;;
20000;SDS011;10161;41.188;-8.642;2023-04-03T04:40:17;3.73;;;2.37;;
20000;SDS011;10161;41.188;-8.642;2023-04-03T04:42:46;2.93;;;2.60;;
20000;SDS011;10161;41.188;-8.642;2023-04-03T04:45:13;3.70;;;2.80;;
20000;SDS011;10161;41.188;-8.642;2023-04-03T04:47:40;3.57;;;2.63;;
20000;SDS011;10161;41.188;-8.642;2023-04-03T04:50:08;3.00;;;2.40;;
20000;SDS011;10161;41.188;-8.642;2023-04-03T04:52:36;5.43;;;2.80;;
20000;SDS011;10161;41.188;-8.642;2023-04-03T04:55:04;4.20;;;3.20;;
20000;SDS011;10161;41.188;-8.642;2023-04-03T04:57:31;5.83;;;3.40;;
20000;SDS011;10161;41.188;-8.642;2023-04-03T04:59:59;5.00;;;2.80;;
20000;SDS011;10161;41.188;-8.642;2023-04-03T05:02:26;4.53;;;2.80;;
20000;SDS011;10161;41.188;-8.642;2023-04-03T05:04:53;3.43;;;2.70;;
20000;SDS011;10161;41.188;-8.642;2023-04-03T05:07:20;4.00;;;2.80;;
20000;SDS011;10161;41.188;-8.642;2023-04-03T05:09:47;3.10;;;2.70;;
20000;SDS011;10161;41.188;-8.642;2023-04-03T05:12:14;4.57;;;2.83;;
20000;SDS011;10161;41.188;-8.642;2023-04-03T05:14:40;8.00;;;2.67;;
20000;SDS011;10161;41.188;-8.642;2023-04-03T05:17:09;4.73;;;2.83;;
20000;SDS011;10161;41.188;-8.642;2023-04-03T05:19:36;4.27;;;2.77;;
20000;SDS011;10161;41.188;-8.642;2023-04-03T05:22:02;3.80;;;2.80;;
20000;SDS011;10161;41.188;-8.642;2023-04-03T05:24:29;4.13;;;2.83;;
20000;SDS011;10161;41.188;-8.642;2023-04-03T05:26:56;3.00;;;2.70;;
20000;SDS011;10161;41.188;-8.642;2023-04-03T05:29:23;4.57;;;3.20;;
20000;SDS011;10161;41.188;-8.642;2023-04-03T05:31:50;3.63;;;2.90;;
20000;SDS011;10161;41.188;-8.642;2023-04-03T05:34:19;6.63;;;2.80;;
20000;SDS011;10161;41.188;-8.642;2023-04-03T05:36:45;4.70;;;2.70;;
20000;SDS011;10161;41.188;-8.642;2023-04-03T05:39:12;3.40;;;2.63;;
20000;SDS011;10161;41.188;-8.642;2023-04-03T05:41:39;2.93;;;2.60;;
20000;SDS011;10161;41.188;-8.642;2023-04-03T05:44:06;3.30;;;2.77;;
20000;SDS011;10161;41.188;-8.642;2023-04-03T05:46:33;3.13;;;2.60;;
20000;SDS011;10161;41.188;-8.642;2023-04-03T05:49:00;2.90;;;2.60;;
20000;SDS011;10161;41.188;-8.642;2023-04-03T05:51:30;3.83;;;3.03;;
20000;SDS011;10161;41.188;-8.642;2023-04-03T05:54:00;2.80;;;2.50;;
20000;SDS011;10161;41.188;-8.642;2023-04-03T05:56:31;5.13;;;2.67;;
20000;SDS011;10161;41.188;-8.642;2023-04-03T05:58:58;4.67;;;3.03;;
20000;SDS011;10161;41.188;-8.642;2023-04-03T06:01:25;4.30;;;2.80;;
20000;SDS011;10161;41.188;-8.642;2023-04-03T06:03:52;3.87;;;2.73;;
20000;SDS011;10161;41.188;-8.642;2023-04-03T06:06:19;3.03;;;2.50;;
20000;SDS011;10161;41.188;-8.642;2023-04-03T06:08:48;4.40;;;2.70;;
20000;SDS011;10161;41.188;-8.642;2023-04-03T06:11:15;3.20;;;2.30;;
20000;SDS011;10161;41.188;-8.642;2023-04-03T06:13:42;3.10;;;2.40;;
20000;SDS011;10161;41.188;-8.642;2023-04-03T06:16:11;3.77;;;2.50;;
20000;SDS011;10161;41.188;-8.642;2023-04-03T06:18:40;4.97;;;2.20;;
20000;SDS011;10161;41.188;-8.642;2023-04-03T06:21:07;3.53;;;2.20;;
20000;SDS011;10161;41.188;-8.642;2023-04-03T06:23:34;6.27;;;2.90;;
20000;SDS011;10161;41.188;-8.642;2023-04-03T06:26:03;6.43;;;2.73;;
20000;SDS011;10161;41.188;-8.642;2023-04-03T06:28:30;3.00;;;2.60;;
20000;SDS011;10161;41.188;-8.642;2023-04-03T06:30:57;4.50;;;2.93;;
20000;SDS011;10161;41.188;-8.642;2023-04-03T06:33:24;4.90;;;2.67;;
20000;SDS011;10161;41.188;-8.642;2023-04-03T06:35:55;4.20;;;2.87;;
20000;SDS011;10161;41.188;-8.642;2023-04-03T06:38:22;4.17;;;2.60;;
20000;SDS011;10161;41.188;-8.642;2023-04-03T06:40:49;4.77;;;3.00;;
20000;SDS011;10161;41.188;-8.642;2023-04-03T06:43:18;3.80;;;2.80;;
20000;SDS011;10161;41.188;-8.642;2023-04-03T06:45:45;4.10;;;2.60;;
20000;SDS011;10161;41.188;-8.642;2023-04-03T06:48:12;4.23;;;2.80;;
20000;SDS011;10161;41.188;-8.642;2023-04-03T06:50:39;4.73;;;2.80;;
20000;SDS011;10161;41.188;-8.642;2023-04-03T06:53:06;4.33;;;2.60;;
20000;SDS011;10161;41.188;-8.642;2023-04-03T06:55:33;4.43;;;3.13;;
20000;SDS011;10161;41.188;-8.642;2023-04-03T06:58:00;3.20;;;2.57;;
20000;SDS011;10161;41.188;-8.642;2023-04-03T07:00:28;3.73;;;2.40;;
20000;SDS011;10161;41.188;-8.642;2023-04-03T07:02:55;2.70;;;2.40;;
20000;SDS011;10161;41.188;-8.642;2023-04-03T07:05:22;3.10;;;2.80;;
20000;SDS011;10161;41.188;-8.642;2023-04-03T07:07:49;3.90;;;2.80;;
20000;SDS011;10161;41.188;-8.642;2023-04-03T07:10:16;8.73;;;2.50;;
20000;SDS011;10161;41.188;-8.642;2023-04-03T07:12:43;4.50;;;2.70;;
20000;SDS011;10161;41.188;-8.642;2023-04-03T07:15:11;2.63;;;2.23;;
20000;SDS011;10161;41.188;-8.642;2023-04-03T07:17:40;4.20;;;2.77;;
20000;SDS011;10161;41.188;-8.642;2023-04-03T07:20:08;4.73;;;3.23;;
20000;SDS011;10161;41.188;-8.642;2023-04-03T07:22:36;3.60;;;2.30;;
20000;SDS011;10161;41.188;-8.642;2023-04-03T07:25:04;2.90;;;2.40;;
20000;SDS011;10161;41.188;-8.642;2023-04-03T07:27:33;4.27;;;2.80;;
20000;SDS011;10161;41.188;-8.642;2023-04-03T07:30:00;7.40;;;5.50;;
20000;SDS011;10161;41.188;-8.642;2023-04-03T07:32:29;6.33;;;3.93;;
20000;SDS011;10161;41.188;-8.642;2023-04-03T07:35:00;5.37;;;3.00;;
20000;SDS011;10161;41.188;-8.642;2023-04-03T07:37:27;3.40;;;3.10;;
20000;SDS011;10161;41.188;-8.642;2023-04-03T07:39:54;4.20;;;2.90;;
20000;SDS011;10161;41.188;-8.642;2023-04-03T07:42:22;4.50;;;3.37;;
20000;SDS011;10161;41.188;-8.642;2023-04-03T07:44:49;4.07;;;3.33;;
20000;SDS011;10161;41.188;-8.642;2023-04-03T07:47:16;4.70;;;3.67;;
20000;SDS011;10161;41.188;-8.642;2023-04-03T07:49:43;4.47;;;3.63;;
20000;SDS011;10161;41.188;-8.642;2023-04-03T07:52:12;6.93;;;4.67;;
20000;SDS011;10161;41.188;-8.642;2023-04-03T07:54:40;5.40;;;4.90;;
20000;SDS011;10161;41.188;-8.642;2023-04-03T07:57:07;7.40;;;5.60;;
20000;SDS011;10161;41.188;-8.642;2023-04-03T07:59:34;7.40;;;5.67;;
20000;SDS011;10161;41.188;-8.642;2023-04-03T08:02:01;4.83;;;4.30;;
20000;SDS011;10161;41.188;-8.642;2023-04-03T08:04:30;6.80;;;4.70;;
20000;SDS011;10161;41.188;-8.642;2023-04-03T08:06:56;5.30;;;3.60;;
20000;SDS011;10161;41.188;-8.642;2023-04-03T08:09:25;5.57;;;3.23;;
20000;SDS011;10161;41.188;-8.642;2023-04-03T08:11:52;6.20;;;3.27;;
20000;SDS011;10161;41.188;-8.642;2023-04-03T08:14:19;4.67;;;3.30;;
20000;SDS011;10161;41.188;-8.642;2023-04-03T08:16:47;5.00;;;2.83;;
20000;SDS011;10161;41.188;-8.642;2023-04-03T08:19:14;3.40;;;2.70;;
20000;SDS011;10161;41.188;-8.642;2023-04-03T08:21:43;3.30;;;2.67;;
20000;SDS011;10161;41.188;-8.642;2023-04-03T08:24:10;3.70;;;3.07;;
20000;SDS011;10161;41.188;-8.642;2023-04-03T08:26:39;3.50;;;2.80;;
20000;SDS011;10161;41.188;-8.642;2023-04-03T08:29:06;8.70;;;2.53;;
20000;SDS011;10161;41.188;-8.642;2023-04-03T08:31:33;4.37;;;2.97;;
20000;SDS011;10161;41.188;-8.642;2023-04-03T08:34:00;4.83;;;3.27;;
20000;SDS011;10161;41.188;-8.642;2023-04-03T08:36:27;3.73;;;3.23;;
20000;SDS011;10161;41.188;-8.642;2023-04-03T08:38:55;3.90;;;3.20;;
20000;SDS011;10161;41.188;-8.642;2023-04-03T08:41:25;3.50;;;2.87;;
20000;SDS011;10161;41.188;-8.642;2023-04-03T08:46:47;3.90;;;2.77;;
20000;SDS011;10161;41.188;-8.642;2023-04-03T08:49:26;3.80;;;2.97;;
20000;SDS011;10161;41.188;-8.642;2023-04-03T08:51:58;3.17;;;2.87;;
20000;SDS011;10161;41.188;-8.642;2023-04-03T08:54:28;3.73;;;2.60;;
20000;SDS011;10161;41.188;-8.642;2023-04-03T08:56:56;3.70;;;3.00;;
20000;SDS011;10161;41.188;-8.642;2023-04-03T08:59:28;3.37;;;2.77;;
20000;SDS011;10161;41.188;-8.642;2023-04-03T09:01:56;4.43;;;2.90;;
20000;SDS011;10161;41.188;-8.642;2023-04-03T09:04:24;5.13;;;3.20;;
20000;SDS011;10161;41.188;-8.642;2023-04-03T09:06:54;4.63;;;3.30;;
20000;SDS011;10161;41.188;-8.642;2023-04-03T09:09:25;5.37;;;3.37;;
20000;SDS011;10161;41.188;-8.642;2023-04-03T09:12:00;3.80;;;3.40;;
20000;SDS011;10161;41.188;-8.642;2023-04-03T09:14:37;5.20;;;3.40;;
20000;SDS011;10161;41.188;-8.642;2023-04-03T09:17:09;5.50;;;3.50;;
20000;SDS011;10161;41.188;-8.642;2023-04-03T09:19:42;5.60;;;3.30;;
20000;SDS011;10161;41.188;-8.642;2023-04-03T09:22:13;3.50;;;2.63;;
20000;SDS011;10161;41.188;-8.642;2023-04-03T09:24:44;4.30;;;3.20;;
20000;SDS011;10161;41.188;-8.642;2023-04-03T09:27:12;4.20;;;3.03;;
20000;SDS011;10161;41.188;-8.642;2023-04-03T09:29:41;3.30;;;2.73;;
20000;SDS011;10161;41.188;-8.642;2023-04-03T09:32:18;4.00;;;3.10;;
20000;SDS011;10161;41.188;-8.642;2023-04-03T09:34:47;5.00;;;4.03;;
20000;SDS011;10161;41.188;-8.642;2023-04-03T09:37:32;5.00;;;3.73;;
20000;SDS011;10161;41.188;-8.642;2023-04-03T09:40:01;4.20;;;3.50;;
20000;SDS011;10161;41.188;-8.642;2023-04-03T09:42:31;4.80;;;3.63;;
20000;SDS011;10161;41.188;-8.642;2023-04-03T09:45:00;5.03;;;3.60;;
20000;SDS011;10161;41.188;-8.642;2023-04-03T09:47:32;4.77;;;3.93;;
20000;SDS011;10161;41.188;-8.642;2023-04-03T09:50:09;4.53;;;3.53;;
20000;SDS011;10161;41.188;-8.642;2023-04-03T09:52:45;4.50;;;3.67;;
20000;SDS011;10161;41.188;-8.642;2023-04-03T09:55:14;5.43;;;3.80;;
20000;SDS011;10161;41.188;-8.642;2023-04-03T09:57:41;5.83;;;4.13;;
20000;SDS011;10161;41.188;-8.642;2023-04-03T10:00:19;5.53;;;4.07;;
20000;SDS011;10161;41.188;-8.642;2023-04-03T10:02:49;5.03;;;4.20;;
20000;SDS011;10161;41.188;-8.642;2023-04-03T10:05:25;5.13;;;4.13;;
20000;SDS011;10161;41.188;-8.642;2023-04-03T10:08:08;4.67;;;4.00;;
20000;SDS011;10161;41.188;-8.642;2023-04-03T10:10:36;10.33;;;4.10;;
20000;SDS011;10161;41.188;-8.642;2023-04-03T10:13:04;7.43;;;4.00;;
20000;SDS011;10161;41.188;-8.642;2023-04-03T10:15:36;6.43;;;4.00;;
20000;SDS011;10161;41.188;-8.642;2023-04-03T10:18:08;5.03;;;3.13;;
20000;SDS011;10161;41.188;-8.642;2023-04-03T10:20:53;4.70;;;3.27;;
20000;SDS011;10161;41.188;-8.642;2023-04-03T10:23:21;3.50;;;3.20;;
20000;SDS011;10161;41.188;-8.642;2023-04-03T10:25:56;3.93;;;3.53;;
20000;SDS011;10161;41.188;-8.642;2023-04-03T10:28:30;4.20;;;3.30;;
20000;SDS011;10161;41.188;-8.642;2023-04-03T10:31:01;7.90;;;3.37;;
20000;SDS011;10161;41.188;-8.642;2023-04-03T10:33:45;3.50;;;2.90;;
20000;SDS011;10161;41.188;-8.642;2023-04-03T10:36:23;5.10;;;3.30;;
20000;SDS011;10161;41.188;-8.642;2023-04-03T10:38:55;5.30;;;3.70;;
20000;SDS011;10161;41.188;-8.642;2023-04-03T10:41:28;8.00;;;3.70;;
20000;SDS011;10161;41.188;-8.642;2023-04-03T10:44:01;5.67;;;3.10;;
20000;SDS011;10161;41.188;-8.642;2023-04-03T10:46:35;6.57;;;3.20;;
20000;SDS011;10161;41.188;-8.642;2023-04-03T10:49:13;3.93;;;3.27;;
20000;SDS011;10161;41.188;-8.642;2023-04-03T10:51:47;4.27;;;3.20;;
20000;SDS011;10161;41.188;-8.642;2023-04-03T10:54:16;10.13;;;3.73;;
20000;SDS011;10161;41.188;-8.642;2023-04-03T10:56:47;6.73;;;3.30;;
20000;SDS011;10161;41.188;-8.642;2023-04-03T10:59:16;4.53;;;3.43;;
20000;SDS011;10161;41.188;-8.642;2023-04-03T11:01:49;12.27;;;3.77;;
20000;SDS011;10161;41.188;-8.642;2023-04-03T11:04:19;7.40;;;4.03;;
20000;SDS011;10161;41.188;-8.642;2023-04-03T11:06:48;6.20;;;3.20;;
20000;SDS011;10161;41.188;-8.642;2023-04-03T11:09:19;4.57;;;3.27;;
20000;SDS011;10161;41.188;-8.642;2023-04-03T11:11:49;4.47;;;3.50;;
20000;SDS011;10161;41.188;-8.642;2023-04-03T11:14:20;5.97;;;3.60;;
20000;SDS011;10161;41.188;-8.642;2023-04-03T11:16:55;9.80;;;4.80;;
20000;SDS011;10161;41.188;-8.642;2023-04-03T11:19:32;7.00;;;4.23;;
20000;SDS011;10161;41.188;-8.642;2023-04-03T11:22:02;14.20;;;4.20;;
20000;SDS011;10161;41.188;-8.642;2023-04-03T11:24:32;9.67;;;4.83;;
20000;SDS011;10161;41.188;-8.642;2023-04-03T11:27:00;7.57;;;4.10;;
20000;SDS011;10161;41.188;-8.642;2023-04-03T11:29:30;12.27;;;4.80;;
20000;SDS011;10161;41.188;-8.642;2023-04-03T11:32:11;9.00;;;5.23;;
20000;SDS011;10161;41.188;-8.642;2023-04-03T11:34:49;12.47;;;4.90;;
20000;SDS011;10161;41.188;-8.642;2023-04-03T11:37:21;7.83;;;4.13;;
20000;SDS011;10161;41.188;-8.642;2023-04-03T11:39:54;9.73;;;4.00;;
20000;SDS011;10161;41.188;-8.642;2023-04-03T11:42:25;7.87;;;4.17;;
20000;SDS011;10161;41.188;-8.642;2023-04-03T11:47:58;10.57;;;3.47;;
20000;SDS011;10161;41.188;-8.642;2023-04-03T11:50:40;9.97;;;3.63;;
20000;SDS011;10161;41.188;-8.642;2023-04-03T11:55:57;11.80;;;4.33;;
20000;SDS011;10161;41.188;-8.642;2023-04-03T11:58:25;10.53;;;4.10;;
20000;SDS011;10161;41.188;-8.642;2023-04-03T12:00:55;9.27;;;3.90;;
20000;SDS011;10161;41.188;-8.642;2023-04-03T12:06:48;6.63;;;3.57;;
20000;SDS011;10161;41.188;-8.642;2023-04-03T12:09:33;14.10;;;4.93;;
20000;SDS011;10161;41.188;-8.642;2023-04-03T12:21:10;7.13;;;3.33;;
20000;SDS011;10161;41.188;-8.642;2023-04-03T12:26:30;11.13;;;4.40;;
20000;SDS011;10161;41.188;-8.642;2023-04-03T12:28:59;6.47;;;3.70;;
20000;SDS011;10161;41.188;-8.642;2023-04-03T12:31:32;10.40;;;4.53;;
20000;SDS011;10161;41.188;-8.642;2023-04-03T12:34:12;11.60;;;4.53;;
20000;SDS011;10161;41.188;-8.642;2023-04-03T12:36:49;10.63;;;3.83;;
20000;SDS011;10161;41.188;-8.642;2023-04-03T12:42:21;9.97;;;3.40;;
20000;SDS011;10161;41.188;-8.642;2023-04-03T12:45:17;9.13;;;3.93;;
20000;SDS011;10161;41.188;-8.642;2023-04-03T12:47:46;11.83;;;4.80;;
20000;SDS011;10161;41.188;-8.642;2023-04-03T12:50:17;10.23;;;3.63;;
20000;SDS011;10161;41.188;-8.642;2023-04-03T12:52:51;13.57;;;4.10;;
20000;SDS011;10161;41.188;-8.642;2023-04-03T12:55:23;10.83;;;4.23;;
20000;SDS011;10161;41.188;-8.642;2023-04-03T12:57:51;8.90;;;4.40;;
20000;SDS011;10161;41.188;-8.642;2023-04-03T13:00:25;10.53;;;4.30;;
20000;SDS011;10161;41.188;-8.642;2023-04-03T13:02:56;10.17;;;5.00;;
20000;SDS011;10161;41.188;-8.642;2023-04-03T13:05:23;9.17;;;4.20;;
20000;SDS011;10161;41.188;-8.642;2023-04-03T13:07:57;7.30;;;3.40;;
20000;SDS011;10161;41.188;-8.642;2023-04-03T13:10:27;12.53;;;3.93;;
20000;SDS011;10161;41.188;-8.642;2023-04-03T13:12:54;8.67;;;4.00;;
20000;SDS011;10161;41.188;-8.642;2023-04-03T13:15:23;7.97;;;3.80;;
20000;SDS011;10161;41.188;-8.642;2023-04-03T13:17:51;8.53;;;3.37;;
20000;SDS011;10161;41.188;-8.642;2023-04-03T13:20:21;9.20;;;3.50;;
20000;SDS011;10161;41.188;-8.642;2023-04-03T13:22:52;5.60;;;3.20;;
20000;SDS011;10161;41.188;-8.642;2023-04-03T13:25:25;7.20;;;2.70;;
20000;SDS011;10161;41.188;-8.642;2023-04-03T13:27:54;7.30;;;2.70;;
20000;SDS011;10161;41.188;-8.642;2023-04-03T13:30:23;9.27;;;3.43;;
20000;SDS011;10161;41.188;-8.642;2023-04-03T13:32:53;11.20;;;3.73;;
20000;SDS011;10161;41.188;-8.642;2023-04-03T13:35:31;9.50;;;3.47;;
20000;SDS011;10161;41.188;-8.642;2023-04-03T13:38:03;9.10;;;3.60;;
20000;SDS011;10161;41.188;-8.642;2023-04-03T13:40:33;8.10;;;3.60;;
20000;SDS011;10161;41.188;-8.642;2023-04-03T13:43:03;7.80;;;3.30;;
20000;SDS011;10161;41.188;-8.642;2023-04-03T13:45:32;8.10;;;3.27;;
20000;SDS011;10161;41.188;-8.642;2023-04-03T13:48:14;9.93;;;3.63;;
20000;SDS011;10161;41.188;-8.642;2023-04-03T13:50:59;8.43;;;3.10;;
20000;SDS011;10161;41.188;-8.642;2023-04-03T13:53:29;7.23;;;2.73;;
20000;SDS011;10161;41.188;-8.642;2023-04-03T13:55:59;6.47;;;3.53;;
20000;SDS011;10161;41.188;-8.642;2023-04-03T13:58:34;8.30;;;3.60;;
20000;SDS011;10161;41.188;-8.642;2023-04-03T14:01:07;11.93;;;3.50;;
20000;SDS011;10161;41.188;-8.642;2023-04-03T14:03:39;9.83;;;3.60;;
20000;SDS011;10161;41.188;-8.642;2023-04-03T14:06:08;10.37;;;3.50;;
20000;SDS011;10161;41.188;-8.642;2023-04-03T14:08:38;11.30;;;3.80;;
20000;SDS011;10161;41.188;-8.642;2023-04-03T14:11:08;10.13;;;3.70;;
20000;SDS011;10161;41.188;-8.642;2023-04-03T14:13:36;8.67;;;3.17;;
20000;SDS011;10161;41.188;-8.642;2023-04-03T14:16:03;12.13;;;3.23;;
20000;SDS011;10161;41.188;-8.642;2023-04-03T14:18:30;6.33;;;3.00;;
20000;SDS011;10161;41.188;-8.642;2023-04-03T14:20:57;9.30;;;3.13;;
20000;SDS011;10161;41.188;-8.642;2023-04-03T14:23:24;8.50;;;3.07;;
20000;SDS011;10161;41.188;-8.642;2023-04-03T14:25:52;7.47;;;2.93;;
20000;SDS011;10161;41.188;-8.642;2023-04-03T14:28:20;14.13;;;3.80;;
20000;SDS011;10161;41.188;-8.642;2023-04-03T14:30:48;10.83;;;3.20;;
20000;SDS011;10161;41.188;-8.642;2023-04-03T14:33:16;7.83;;;3.13;;
20000;SDS011;10161;41.188;-8.642;2023-04-03T14:35:44;9.97;;;3.20;;
20000;SDS011;10161;41.188;-8.642;2023-04-03T14:38:16;13.47;;;3.57;;
20000;SDS011;10161;41.188;-8.642;2023-04-03T14:40:48;11.10;;;2.63;;
20000;SDS011;10161;41.188;-8.642;2023-04-03T14:43:17;8.60;;;3.10;;
20000;SDS011;10161;41.188;-8.642;2023-04-03T14:45:45;8.60;;;2.80;;
20000;SDS011;10161;41.188;-8.642;2023-04-03T14:48:15;8.43;;;2.80;;
20000;SDS011;10161;41.188;-8.642;2023-04-03T14:50:44;9.43;;;3.40;;
20000;SDS011;10161;41.188;-8.642;2023-04-03T14:53:11;5.43;;;2.50;;
20000;SDS011;10161;41.188;-8.642;2023-04-03T14:55:40;10.23;;;2.83;;
20000;SDS011;10161;41.188;-8.642;2023-04-03T14:58:08;6.70;;;2.43;;
20000;SDS011;10161;41.188;-8.642;2023-04-03T15:00:37;6.77;;;2.60;;
20000;SDS011;10161;41.188;-8.642;2023-04-03T15:03:04;10.77;;;3.40;;
20000;SDS011;10161;41.188;-8.642;2023-04-03T15:05:31;13.53;;;3.60;;
20000;SDS011;10161;41.188;-8.642;2023-04-03T15:07:58;8.70;;;3.20;;
20000;SDS011;10161;41.188;-8.642;2023-04-03T15:10:26;9.17;;;2.90;;
20000;SDS011;10161;41.188;-8.642;2023-04-03T15:12:54;5.10;;;2.57;;